Time;durP1;ratioP1;P1;durP2;ratioP2;P2;SDS_P1;SDS_P2;PMS_P1;PMS_P2;Temp;Humidity;BMP_temperature;BMP_pressure;BME280_temperature;BME280_humidity;BME280_pressure;Samples;Min_cycle;Max_cycle;Signal;HPM_P1;HPM_P2
2022/09/22 00:02:25;;;;;;;5.90;3.90;;;8.00;99.90;;;;;;5003563;28;20535;-53
2022/09/22 00:04:50;;;;;;;5.05;3.40;;;8.00;99.90;;;;;;4999565;28;20515;-55
2022/09/22 00:07:16;;;;;;;5.57;3.05;;;7.90;99.90;;;;;;5009216;28;20085;-55
2022/09/22 00:09:41;;;;;;;3.50;3.08;;;7.90;99.90;;;;;;4987899;28;20035;-52
2022/09/22 00:12:07;;;;;;;4.53;3.00;;;7.90;99.90;;;;;;5009231;28;20417;-52
2022/09/22 00:14:33;;;;;;;3.55;3.20;;;7.80;99.90;;;;;;5005027;28;20018;-53
2022/09/22 00:17:00;;;;;;;6.18;3.85;;;7.80;99.90;;;;;;5001336;28;20022;-52
2022/09/22 00:19:36;;;;;;;5.03;3.33;;;7.80;99.90;;;;;;5001759;28;20456;-53
2022/09/22 00:22:03;;;;;;;3.97;3.28;;;7.80;99.90;;;;;;5002235;28;20030;-53
2022/09/22 00:24:30;;;;;;;3.58;3.25;;;7.80;99.90;;;;;;5008680;28;20559;-54
2022/09/22 00:26:56;;;;;;;3.03;2.72;;;7.70;99.90;;;;;;5002043;28;20026;-53
2022/09/22 00:29:24;;;;;;;3.72;3.42;;;7.70;99.90;;;;;;5009967;28;20182;-52
2022/09/22 00:31:50;;;;;;;4.25;2.72;;;7.70;99.90;;;;;;5002181;28;20022;-53
2022/09/22 00:34:22;;;;;;;4.18;2.90;;;7.60;99.90;;;;;;5002911;28;20037;-54
2022/09/22 00:36:48;;;;;;;4.13;3.28;;;7.60;99.90;;;;;;4987220;28;20026;-54
2022/09/22 00:39:16;;;;;;;4.80;3.22;;;7.50;99.90;;;;;;5003496;28;20030;-53
2022/09/22 00:41:44;;;;;;;4.07;2.42;;;7.60;99.90;;;;;;5006184;28;20073;-53
2022/09/22 00:44:25;;;;;;;4.90;3.45;;;7.50;99.90;;;;;;5004005;28;20017;-52
2022/09/22 00:47:03;;;;;;;6.13;3.38;;;7.50;99.90;;;;;;5007101;28;20037;-55
2022/09/22 00:49:47;;;;;;;3.28;2.45;;;7.40;99.90;;;;;;5005123;28;20022;-51
2022/09/22 00:52:16;;;;;;;4.00;2.70;;;7.40;99.90;;;;;;5000368;28;20021;-52
2022/09/22 00:54:41;;;;;;;3.75;2.78;;;7.40;99.90;;;;;;5005905;28;20026;-57
2022/09/22 00:57:12;;;;;;;5.38;3.33;;;7.40;99.90;;;;;;5002463;28;20287;-53
2022/09/22 00:59:40;;;;;;;3.15;2.75;;;7.40;99.90;;;;;;5004387;28;20396;-57
2022/09/22 01:02:06;;;;;;;6.47;2.85;;;7.40;99.90;;;;;;5001523;28;20030;-55
2022/09/22 01:04:32;;;;;;;3.38;2.97;;;7.30;99.90;;;;;;4999647;28;20037;-55
2022/09/22 01:06:59;;;;;;;6.22;2.83;;;7.30;99.90;;;;;;5005914;28;20059;-54
2022/09/22 01:09:25;;;;;;;2.90;2.70;;;7.30;99.90;;;;;;5003561;28;20056;-53
2022/09/22 01:11:52;;;;;;;5.13;2.70;;;7.30;99.90;;;;;;5006152;28;20502;-52
2022/09/22 01:14:39;;;;;;;3.10;2.80;;;7.30;99.90;;;;;;5006232;28;20110;-57
2022/09/22 01:17:18;;;;;;;2.80;2.50;;;7.20;99.90;;;;;;5001214;28;20022;-51
2022/09/22 01:19:56;;;;;;;4.53;2.97;;;7.20;99.90;;;;;;5000454;28;20112;-53
2022/09/22 01:22:55;;;;;;;3.83;2.92;;;7.20;99.90;;;;;;4996561;28;20029;-52
2022/09/22 01:25:27;;;;;;;3.08;2.50;;;7.20;99.90;;;;;;4993311;28;20384;-51
2022/09/22 01:28:21;;;;;;;3.28;2.83;;;7.20;99.90;;;;;;5004550;28;20069;-53
2022/09/22 01:31:10;;;;;;;5.28;2.88;;;7.10;99.90;;;;;;4995329;28;20457;-55
2022/09/22 01:33:48;;;;;;;3.38;2.83;;;7.10;99.90;;;;;;4994646;28;20030;-53
2022/09/22 01:36:31;;;;;;;3.85;2.88;;;7.10;99.90;;;;;;4995841;28;20033;-52
2022/09/22 01:39:16;;;;;;;4.70;2.85;;;7.10;99.90;;;;;;4996387;28;20033;-55
2022/09/22 01:42:10;;;;;;;3.38;2.83;;;7.10;99.90;;;;;;5005181;28;20022;-55
2022/09/22 01:44:54;;;;;;;3.45;2.65;;;7.00;99.90;;;;;;5001684;28;20105;-51
2022/09/22 01:47:40;;;;;;;3.65;2.80;;;7.00;99.90;;;;;;4990842;28;20049;-52
2022/09/22 01:50:11;;;;;;;4.03;3.25;;;7.00;99.90;;;;;;5012286;28;20080;-52
2022/09/22 01:52:40;;;;;;;4.97;3.22;;;7.00;99.90;;;;;;5013407;28;20160;-52
2022/09/22 01:55:08;;;;;;;3.13;2.78;;;6.90;99.90;;;;;;5012712;28;20045;-54
2022/09/22 01:58:00;;;;;;;3.50;2.25;;;7.00;99.90;;;;;;5012960;28;20037;-55
2022/09/22 02:00:26;;;;;;;3.53;2.75;;;6.90;99.90;;;;;;5000333;28;20491;-55
2022/09/22 02:03:04;;;;;;;7.05;2.90;;;6.90;99.90;;;;;;5014204;28;20026;-53
2022/09/22 02:05:34;;;;;;;4.55;2.95;;;6.80;99.90;;;;;;5013181;28;20026;-51
2022/09/22 02:08:06;;;;;;;3.95;2.28;;;6.80;99.90;;;;;;5012961;28;20145;-54
2022/09/22 02:10:42;;;;;;;3.83;2.88;;;6.80;99.90;;;;;;5012603;28;20076;-51
2022/09/22 02:13:07;;;;;;;3.60;2.67;;;6.90;99.90;;;;;;5012749;28;20018;-54
2022/09/22 02:18:26;;;;;;;2.65;2.33;;;6.80;99.90;;;;;;5000092;28;20033;-53
2022/09/22 02:20:52;;;;;;;3.78;2.75;;;6.70;99.90;;;;;;5012605;28;20049;-53
2022/09/22 02:23:18;;;;;;;2.90;2.63;;;6.70;99.90;;;;;;5012626;28;20476;-54
2022/09/22 02:25:44;;;;;;;4.43;2.53;;;6.70;99.90;;;;;;5012862;28;20101;-52
2022/09/22 02:28:15;;;;;;;3.20;2.78;;;6.70;99.90;;;;;;5012588;28;20020;-56
2022/09/22 02:30:42;;;;;;;3.53;2.83;;;6.60;99.90;;;;;;5012272;28;20034;-55
2022/09/22 02:33:10;;;;;;;4.10;2.90;;;6.60;99.90;;;;;;5012193;28;20117;-52
2022/09/22 02:35:38;;;;;;;3.38;3.05;;;6.60;99.90;;;;;;5012440;28;20423;-52
2022/09/22 02:38:24;;;;;;;3.30;3.00;;;6.60;99.90;;;;;;5012419;28;20022;-53
2022/09/22 02:41:09;;;;;;;2.95;2.70;;;6.60;99.90;;;;;;5011805;28;20049;-54
2022/09/22 02:43:45;;;;;;;3.05;2.80;;;6.60;99.90;;;;;;5012389;28;20026;-56
2022/09/22 02:46:14;;;;;;;;;;;6.50;99.90;;;;;;5012793;28;20022;-58
2022/09/22 02:48:44;;;;;;;2.47;2.28;;;6.50;99.90;;;;;;5012321;28;19962;-54
2022/09/22 02:51:10;;;;;;;2.65;2.40;;;6.40;99.90;;;;;;5011823;28;20121;-54
2022/09/22 02:53:36;;;;;;;2.60;2.20;;;6.40;99.90;;;;;;4993665;28;20030;-52
2022/09/22 02:56:03;;;;;;;2.90;2.22;;;6.40;99.90;;;;;;5011815;28;20026;-53
2022/09/22 02:58:28;;;;;;;2.83;2.60;;;6.30;99.90;;;;;;5012048;28;20022;-51
2022/09/22 03:00:54;;;;;;;4.53;2.10;;;6.30;99.90;;;;;;5012063;28;20392;-51
2022/09/22 03:03:19;;;;;;;2.55;2.35;;;6.30;99.90;;;;;;5012549;28;20056;-56
2022/09/22 03:05:45;;;;;;;2.35;1.80;;;6.30;99.90;;;;;;5012030;28;20029;-56
2022/09/22 03:08:11;;;;;;;3.60;2.22;;;6.30;99.90;;;;;;5011336;28;20147;-54
2022/09/22 03:10:36;;;;;;;4.35;2.50;;;6.20;99.90;;;;;;5011521;28;20026;-51
2022/09/22 03:13:02;;;;;;;3.60;2.42;;;6.20;99.90;;;;;;5011228;28;20022;-53
2022/09/22 03:15:27;;;;;;;4.25;2.72;;;6.30;99.90;;;;;;5011332;28;20440;-54
2022/09/22 03:17:53;;;;;;;2.08;1.88;;;6.20;99.90;;;;;;5011477;28;20284;-53
2022/09/22 03:20:18;;;;;;;2.88;2.63;;;6.20;99.90;;;;;;5011643;28;20043;-54
2022/09/22 03:22:44;;;;;;;3.17;2.38;;;6.20;99.90;;;;;;4993557;28;20461;-55
2022/09/22 03:25:11;;;;;;;4.22;2.58;;;6.20;99.90;;;;;;5011250;28;20033;-56
2022/09/22 03:27:37;;;;;;;3.10;2.55;;;6.10;99.90;;;;;;5011099;28;20426;-54
2022/09/22 03:30:08;;;;;;;2.88;2.55;;;6.20;99.90;;;;;;5010877;28;20125;-56
2022/09/22 03:32:34;;;;;;;3.35;2.70;;;6.10;99.90;;;;;;5011264;28;20483;-53
2022/09/22 03:35:00;;;;;;;3.13;2.75;;;6.10;99.90;;;;;;5011157;28;20102;-54
2022/09/22 03:37:26;;;;;;;3.63;2.90;;;6.10;99.90;;;;;;5011497;28;20093;-53
2022/09/22 03:39:51;;;;;;;6.95;3.22;;;6.10;99.90;;;;;;5010792;28;20040;-55
2022/09/22 03:42:17;;;;;;;3.03;2.72;;;6.10;99.90;;;;;;4993064;28;20025;-53
2022/09/22 03:44:43;;;;;;;5.10;2.75;;;6.10;99.90;;;;;;4993392;28;20607;-56
2022/09/22 03:47:08;;;;;;;4.35;3.17;;;6.10;99.90;;;;;;5010840;28;20038;-54
2022/09/22 03:49:34;;;;;;;3.65;3.15;;;6.10;99.90;;;;;;5010740;28;20116;-56
2022/09/22 03:52:00;;;;;;;5.75;2.92;;;6.10;99.90;;;;;;5010533;28;20026;-54
2022/09/22 03:54:25;;;;;;;3.92;3.58;;;6.00;99.90;;;;;;5010342;28;20050;-53
2022/09/22 03:56:51;;;;;;;6.15;3.88;;;6.00;99.90;;;;;;5010925;28;20045;-55
2022/09/22 03:59:17;;;;;;;3.97;3.47;;;6.10;99.90;;;;;;5011006;28;20018;-54
2022/09/22 04:01:43;;;;;;;6.00;3.75;;;6.00;99.90;;;;;;4992811;28;20115;-55
2022/09/22 04:04:08;;;;;;;4.20;3.80;;;6.00;99.90;;;;;;5010846;28;20652;-53
2022/09/22 04:06:35;;;;;;;4.32;3.90;;;6.00;99.90;;;;;;5009252;28;20025;-54
2022/09/22 04:09:01;;;;;;;5.05;3.78;;;6.00;99.90;;;;;;5010147;28;20100;-52
2022/09/22 04:11:26;;;;;;;3.90;3.50;;;6.00;99.90;;;;;;5010183;28;20022;-56
2022/09/22 04:13:53;;;;;;;4.10;3.58;;;6.00;99.90;;;;;;5010357;28;20089;-56
2022/09/22 04:16:18;;;;;;;4.35;3.78;;;6.00;99.90;;;;;;5010433;28;20532;-51
2022/09/22 04:18:44;;;;;;;6.28;3.97;;;5.90;99.90;;;;;;5008967;28;20181;-55
2022/09/22 04:21:10;;;;;;;4.15;3.75;;;6.00;99.90;;;;;;5010129;28;20061;-55
2022/09/22 04:23:35;;;;;;;4.45;3.95;;;5.90;99.90;;;;;;5009982;28;20108;-55
2022/09/22 04:26:02;;;;;;;6.88;4.30;;;5.90;99.90;;;;;;5010211;28;20033;-56
2022/09/22 04:28:28;;;;;;;7.32;4.50;;;5.90;99.90;;;;;;5009928;28;20123;-53
2022/09/22 04:30:54;;;;;;;4.80;4.03;;;5.90;99.90;;;;;;5009320;28;20535;-58
2022/09/22 04:33:20;;;;;;;4.45;3.72;;;5.80;99.90;;;;;;5009950;28;20099;-52
2022/09/22 04:35:48;;;;;;;4.70;4.22;;;5.80;99.90;;;;;;5010144;28;20101;-54
2022/09/22 04:38:14;;;;;;;4.35;3.95;;;5.80;99.90;;;;;;5010026;28;20095;-56
2022/09/22 04:40:40;;;;;;;4.22;3.58;;;5.80;99.90;;;;;;4992124;28;20068;-51
2022/09/22 04:43:05;;;;;;;5.13;4.22;;;5.80;99.90;;;;;;5010046;28;20034;-52
2022/09/22 04:45:31;;;;;;;6.00;4.90;;;5.80;99.90;;;;;;5009709;28;20046;-55
2022/09/22 04:47:56;;;;;;;5.30;3.97;;;5.80;99.90;;;;;;5010059;28;20032;-56
2022/09/22 04:50:22;;;;;;;6.38;4.07;;;5.80;99.90;;;;;;5009824;28;20029;-53
2022/09/22 04:52:51;;;;;;;5.68;4.47;;;5.80;99.90;;;;;;5009135;28;20504;-59
2022/09/22 04:55:17;;;;;;;4.43;3.90;;;5.70;99.90;;;;;;4994448;28;20303;-51
2022/09/22 04:57:54;;;;;;;5.13;4.00;;;5.70;99.90;;;;;;5009702;28;20049;-56
2022/09/22 05:00:22;;;;;;;4.78;4.28;;;5.70;99.90;;;;;;4995727;28;20013;-56
2022/09/22 05:02:48;;;;;;;5.65;4.57;;;5.80;99.90;;;;;;5009568;28;20022;-59
2022/09/22 05:05:14;;;;;;;8.07;4.68;;;5.80;99.90;;;;;;4993738;28;20022;-55
2022/09/22 05:07:47;;;;;;;6.28;4.72;;;5.70;99.90;;;;;;5009453;28;20084;-52
2022/09/22 05:10:16;;;;;;;6.32;4.45;;;5.70;99.90;;;;;;5009660;28;20030;-56
2022/09/22 05:12:43;;;;;;;5.57;4.78;;;5.70;99.90;;;;;;5009499;28;20032;-53
2022/09/22 05:15:11;;;;;;;5.35;4.60;;;5.70;99.90;;;;;;5009325;28;20044;-51
2022/09/22 05:17:37;;;;;;;5.55;5.05;;;5.70;99.90;;;;;;5009294;28;20076;-52
2022/09/22 05:20:06;;;;;;;5.50;4.70;;;5.70;99.90;;;;;;5009731;28;20026;-54
2022/09/22 05:22:32;;;;;;;14.43;5.28;;;5.70;99.90;;;;;;5009062;28;20492;-53
2022/09/22 05:24:58;;;;;;;7.65;5.10;;;5.70;99.90;;;;;;5009268;28;20026;-54
2022/09/22 05:27:24;;;;;;;5.68;4.63;;;5.70;99.90;;;;;;5009380;28;20032;-56
2022/09/22 05:29:49;;;;;;;5.63;4.55;;;5.70;99.90;;;;;;5009154;28;20041;-58
2022/09/22 05:32:15;;;;;;;5.22;4.30;;;5.70;99.90;;;;;;5009622;28;20037;-55
2022/09/22 05:34:40;;;;;;;6.00;4.30;;;5.70;99.90;;;;;;5009899;28;20026;-54
2022/09/22 05:37:06;;;;;;;4.97;4.43;;;5.70;99.90;;;;;;5009690;28;20041;-53
2022/09/22 05:39:32;;;;;;;5.50;4.95;;;5.70;99.90;;;;;;5009340;28;20400;-56
2022/09/22 05:41:57;;;;;;;6.25;4.57;;;5.70;99.90;;;;;;5009375;28;20503;-55
2022/09/22 05:44:23;;;;;;;6.25;4.50;;;5.70;99.90;;;;;;4991762;28;20018;-53
2022/09/22 05:46:49;;;;;;;6.07;5.00;;;5.70;99.90;;;;;;5009379;28;20029;-56
2022/09/22 05:49:14;;;;;;;5.97;5.38;;;5.70;99.90;;;;;;5009479;28;20066;-55
2022/09/22 05:51:41;;;;;;;6.75;5.68;;;5.70;99.90;;;;;;5009337;28;20026;-56
2022/09/22 05:54:08;;;;;;;9.90;5.88;;;5.80;99.90;;;;;;5009576;28;20026;-56
2022/09/22 05:56:34;;;;;;;5.78;4.85;;;5.80;99.90;;;;;;5009360;28;20121;-56
2022/09/22 05:58:59;;;;;;;7.85;5.65;;;5.80;99.90;;;;;;5009401;28;20476;-55
2022/09/22 06:01:25;;;;;;;8.18;6.30;;;5.80;99.90;;;;;;5009072;28;20455;-54
2022/09/22 06:03:51;;;;;;;8.27;6.22;;;5.80;99.90;;;;;;5009518;28;20030;-57
2022/09/22 06:06:16;;;;;;;6.93;5.80;;;5.80;99.90;;;;;;4991224;28;20345;-54
2022/09/22 06:08:42;;;;;;;6.55;5.38;;;5.90;99.90;;;;;;5009306;28;20037;-54
2022/09/22 06:11:08;;;;;;;5.60;5.10;;;5.90;99.90;;;;;;5009265;28;20538;-52
2022/09/22 06:13:34;;;;;;;5.47;4.78;;;5.90;99.90;;;;;;5009088;28;20033;-54
2022/09/22 06:16:01;;;;;;;6.68;5.38;;;5.90;99.90;;;;;;5008504;28;20025;-55
2022/09/22 06:18:27;;;;;;;7.35;5.35;;;6.00;99.90;;;;;;5009109;28;20113;-54
2022/09/22 06:20:55;;;;;;;6.07;4.90;;;6.00;99.90;;;;;;5009423;28;20033;-54
2022/09/22 06:23:21;;;;;;;5.30;4.80;;;6.00;99.90;;;;;;5009165;28;20091;-53
2022/09/22 06:25:46;;;;;;;6.90;5.35;;;6.00;99.90;;;;;;5009583;28;20473;-56
2022/09/22 06:28:13;;;;;;;7.05;5.18;;;6.10;99.90;;;;;;5009639;28;20025;-56
2022/09/22 06:30:39;;;;;;;5.47;4.97;;;6.20;99.90;;;;;;5012316;28;20030;-54
2022/09/22 06:33:06;;;;;;;7.20;5.10;;;6.20;99.90;;;;;;5012766;28;20026;-55
2022/09/22 06:35:38;;;;;;;7.35;6.30;;;6.30;99.90;;;;;;5012632;28;20420;-54
2022/09/22 06:38:05;;;;;;;6.60;5.85;;;6.30;99.90;;;;;;5012657;28;20018;-56
2022/09/22 06:40:32;;;;;;;8.80;5.68;;;6.40;99.90;;;;;;5012553;28;20476;-55
2022/09/22 06:43:09;;;;;;;10.13;6.03;;;6.50;99.90;;;;;;5012041;28;20488;-58
2022/09/22 06:45:34;;;;;;;6.15;5.53;;;6.60;99.90;;;;;;5012644;28;20336;-54
2022/09/22 06:48:00;;;;;;;10.48;5.72;;;6.70;99.90;;;;;;5012305;28;20040;-56
2022/09/22 06:50:32;;;;;;;6.63;4.78;;;6.70;99.90;;;;;;5012140;28;20026;-55
2022/09/22 06:53:03;;;;;;;9.27;6.03;;;6.80;99.90;;;;;;4993540;28;20068;-57
2022/09/22 06:55:30;;;;;;;6.40;5.80;;;6.90;99.90;;;;;;5012175;28;20029;-55
2022/09/22 06:57:59;;;;;;;7.43;5.82;;;7.00;99.90;;;;;;5012037;28;20028;-52
2022/09/22 07:00:30;;;;;;;9.70;6.38;;;7.10;99.90;;;;;;5012272;28;20060;-54
2022/09/22 07:03:24;;;;;;;8.05;6.57;;;7.20;99.90;;;;;;5011990;28;20025;-53
2022/09/22 07:05:52;;;;;;;8.15;7.40;;;7.30;99.90;;;;;;5009578;28;20048;-56
2022/09/22 07:08:22;;;;;;;9.45;6.85;;;7.30;99.90;;;;;;5010194;28;20029;-54
2022/09/22 07:11:02;;;;;;;9.27;7.35;;;7.40;99.90;;;;;;5052326;22;20049;-45
2022/09/22 07:13:30;;;;;;;8.45;7.38;;;7.50;99.90;;;;;;5045156;28;20027;-47
2022/09/22 07:16:00;;;;;;;8.10;7.25;;;7.60;99.90;;;;;;5050239;28;20079;-49
2022/09/22 07:18:26;;;;;;;9.93;8.52;;;7.70;99.90;;;;;;5045580;28;20025;-51
2022/09/22 07:20:59;;;;;;;8.30;7.20;;;7.80;99.90;;;;;;5050850;28;20431;-47
2022/09/22 07:23:25;;;;;;;10.25;8.15;;;7.90;99.90;;;;;;5043315;28;20018;-47
2022/09/22 07:25:55;;;;;;;12.27;8.45;;;8.00;99.90;;;;;;5050498;28;20433;-51
2022/09/22 07:28:21;;;;;;;8.73;7.82;;;8.20;99.90;;;;;;5046720;28;20048;-50
2022/09/22 07:30:46;;;;;;;13.80;9.48;;;8.40;99.90;;;;;;5049606;28;20021;-49
2022/09/22 07:33:13;;;;;;;13.15;9.70;;;8.50;99.90;;;;;;5047462;28;20025;-48
2022/09/22 07:35:38;;;;;;;12.50;9.85;;;8.60;99.90;;;;;;5047238;28;20624;-47
2022/09/22 07:38:04;;;;;;;11.15;9.38;;;8.80;99.90;;;;;;5048923;28;20036;-46
2022/09/22 07:40:30;;;;;;;12.45;10.25;;;8.90;99.90;;;;;;5044226;28;20036;-47
2022/09/22 07:42:55;;;;;;;12.32;11.13;;;9.00;99.90;;;;;;5050384;28;20021;-45
2022/09/22 07:45:22;;;;;;;12.43;11.10;;;9.20;99.90;;;;;;5046763;28;20407;-46
2022/09/22 07:50:32;;;;;;;17.85;11.73;;;9.50;99.90;;;;;;5035964;28;20072;-48
2022/09/22 07:52:57;;;;;;;14.07;11.77;;;9.70;99.90;;;;;;5050222;28;20518;-49
2022/09/22 07:55:23;;;;;;;13.93;11.35;;;9.80;99.90;;;;;;5046318;28;20487;-47
2022/09/22 07:57:57;;;;;;;11.73;9.57;;;10.00;99.90;;;;;;5045867;28;20386;-47
2022/09/22 08:00:25;;;;;;;13.30;9.70;;;10.10;99.90;;;;;;5045865;28;20025;-48
2022/09/22 08:02:54;;;;;;;12.80;9.73;;;10.30;99.90;;;;;;5047922;28;20031;-48
2022/09/22 08:05:25;;;;;;;10.68;9.57;;;10.50;99.90;;;;;;5045045;28;20028;-49
2022/09/22 08:07:51;;;;;;;13.98;9.13;;;10.70;99.90;;;;;;5046776;28;20029;-46
2022/09/22 08:10:18;;;;;;;10.55;8.27;;;10.90;99.90;;;;;;5049902;28;20517;-47
2022/09/22 08:12:43;;;;;;;13.52;7.30;;;11.10;99.90;;;;;;5046264;28;20242;-50
2022/09/22 08:15:10;;;;;;;8.32;6.50;;;11.20;99.90;;;;;;5049069;28;20107;-50
2022/09/22 08:17:38;;;;;;;7.68;6.10;;;11.40;99.90;;;;;;5046203;28;20021;-46
2022/09/22 08:20:04;;;;;;;7.07;5.20;;;11.60;99.90;;;;;;5048182;28;20028;-46
2022/09/22 08:22:30;;;;;;;8.27;6.25;;;11.80;99.90;;;;;;5044254;28;20094;-47
2022/09/22 08:24:55;;;;;;;5.45;4.95;;;12.00;99.90;;;;;;5046513;28;20025;-50
2022/09/22 08:27:21;;;;;;;10.93;5.10;;;12.10;99.90;;;;;;5050040;28;20029;-49
2022/09/22 08:29:46;;;;;;;8.02;4.65;;;12.30;99.90;;;;;;5045761;28;20025;-49
2022/09/22 08:32:16;;;;;;;4.07;3.45;;;12.50;99.90;;;;;;5048554;28;20056;-48
2022/09/22 08:34:41;;;;;;;7.60;4.30;;;12.60;99.90;;;;;;5045359;28;20017;-47
2022/09/22 08:37:08;;;;;;;4.88;4.00;;;12.80;99.90;;;;;;5047638;28;20391;-49
2022/09/22 08:39:35;;;;;;;5.10;3.60;;;12.90;99.90;;;;;;5044120;28;20033;-49
2022/09/22 08:42:18;;;;;;;6.53;3.70;;;13.00;99.90;;;;;;5045680;28;20013;-49
2022/09/22 08:44:59;;;;;;;6.28;3.75;;;13.00;99.90;;;;;;5050155;28;20017;-50
2022/09/22 08:53:22;;;;;;;5.75;3.70;;;13.30;99.90;;;;;;5048941;28;20112;-50
2022/09/22 08:55:54;;;;;;;4.80;3.45;;;13.40;99.90;;;;;;5045925;28;20021;-48
2022/09/22 08:58:40;;;;;;;5.47;4.40;;;13.40;99.90;;;;;;5045202;28;20100;-48
2022/09/22 09:01:41;;;;;;;6.13;3.35;;;13.50;99.90;;;;;;5046169;28;20494;-49
2022/09/22 09:04:20;;;;;;;4.72;2.80;;;13.50;99.90;;;;;;5046528;28;20036;-49
2022/09/22 09:06:55;;;;;;;4.53;3.10;;;13.60;99.90;;;;;;5044776;28;20070;-48
2022/09/22 09:09:42;;;;;;;6.05;3.67;;;13.60;99.90;;;;;;5034836;28;20087;-48
2022/09/22 09:12:33;;;;;;;7.20;4.22;;;13.70;99.90;;;;;;5043550;28;20029;-49
2022/09/22 09:15:16;;;;;;;5.70;3.13;;;13.70;99.90;;;;;;5047409;28;20025;-46
2022/09/22 09:17:46;;;;;;;3.42;2.38;;;13.80;99.90;;;;;;5044820;28;20106;-48
2022/09/22 09:20:16;;;;;;;3.50;2.55;;;13.80;99.90;;;;;;5046732;28;20023;-49
2022/09/22 09:22:47;;;;;;;4.80;2.63;;;13.80;99.90;;;;;;5043795;28;20098;-52
2022/09/22 09:25:16;;;;;;;3.50;2.05;;;13.90;99.90;;;;;;5045500;28;20040;-52
2022/09/22 09:27:46;;;;;;;3.53;2.00;;;13.90;99.90;;;;;;5049467;28;20025;-50
2022/09/22 09:30:16;;;;;;;3.38;2.63;;;14.00;99.90;;;;;;5046235;28;20442;-48
2022/09/22 09:32:59;;;;;;;2.72;2.10;;;14.10;99.90;;;;;;5049307;28;20021;-46
2022/09/22 09:35:48;;;;;;;4.22;2.50;;;14.10;99.90;;;;;;5040329;28;20017;-47
2022/09/22 09:38:16;;;;;;;4.32;2.45;;;14.10;99.90;;;;;;5045979;28;20484;-46
2022/09/22 09:40:53;;;;;;;2.90;1.83;;;14.20;99.90;;;;;;5043950;28;20019;-51
2022/09/22 09:43:23;;;;;;;6.00;2.20;;;14.10;99.90;;;;;;5034177;28;20045;-48
2022/09/22 09:45:54;;;;;;;2.50;1.70;;;14.20;99.90;;;;;;5047776;28;20490;-48
2022/09/22 09:48:47;;;;;;;2.53;2.10;;;14.20;99.90;;;;;;5048089;28;20028;-46
2022/09/22 09:51:13;;;;;;;7.03;2.22;;;14.30;99.90;;;;;;5043827;28;20388;-46
2022/09/22 09:53:46;;;;;;;4.18;1.60;;;14.30;99.90;;;;;;5031531;28;20052;-49
2022/09/22 09:56:35;;;;;;;4.28;1.83;;;14.30;99.90;;;;;;5043728;28;20014;-47
2022/09/22 10:01:52;;;;;;;4.05;1.85;;;14.30;99.90;;;;;;5040194;28;20067;-47
2022/09/22 10:04:27;;;;;;;2.85;1.75;;;14.40;99.90;;;;;;5032553;28;20087;-48
2022/09/22 10:06:54;;;;;;;2.10;1.05;;;14.40;99.90;;;;;;5049685;28;20499;-47
2022/09/22 10:09:29;;;;;;;3.47;1.40;;;14.40;99.90;;;;;;5052284;28;20025;-48
2022/09/22 10:12:00;;;;;;;3.13;1.42;;;14.40;99.90;;;;;;5048452;28;20475;-47
2022/09/22 10:14:30;;;;;;;5.55;1.30;;;14.50;99.90;;;;;;5051412;28;20025;-47
2022/09/22 10:16:55;;;;;;;3.72;1.23;;;14.50;99.90;;;;;;5047501;28;20013;-49
2022/09/22 10:19:30;;;;;;;2.15;0.82;;;14.60;99.90;;;;;;5050309;28;20032;-46
2022/09/22 10:22:25;;;;;;;2.63;1.00;;;14.60;99.90;;;;;;5046693;28;20021;-46
2022/09/22 10:24:57;;;;;;;1.77;0.65;;;14.70;99.90;;;;;;5046855;28;20769;-52
2022/09/22 10:27:24;;;;;;;3.33;0.68;;;14.80;99.90;;;;;;5038695;28;20061;-48
2022/09/22 10:30:20;;;;;;;2.58;0.80;;;14.90;99.90;;;;;;5047969;28;20025;-47
2022/09/22 10:33:02;;;;;;;4.03;1.38;;;14.90;99.90;;;;;;5045139;28;20021;-46
2022/09/22 10:35:29;;;;;;;4.75;0.85;;;14.90;99.90;;;;;;5042182;28;20072;-46
2022/09/22 10:37:58;;;;;;;2.88;1.00;;;15.00;99.90;;;;;;5047691;28;20027;-48
2022/09/22 10:40:26;;;;;;;3.75;1.20;;;15.00;99.90;;;;;;5047388;28;20033;-47
2022/09/22 10:42:55;;;;;;;4.85;1.60;;;15.10;99.90;;;;;;5049549;28;20035;-47
2022/09/22 10:45:39;;;;;;;3.67;1.35;;;15.10;99.90;;;;;;5048228;28;20501;-46
2022/09/22 10:48:25;;;;;;;3.53;1.27;;;15.20;99.90;;;;;;5047087;28;20106;-50
2022/09/22 10:51:26;;;;;;;4.85;1.30;;;15.20;99.90;;;;;;5051249;28;20025;-49
2022/09/22 10:54:08;;;;;;;2.03;1.00;;;15.30;99.90;;;;;;5044994;28;20021;-49
2022/09/22 10:56:44;;;;;;;6.15;1.20;;;15.30;99.90;;;;;;5049507;28;20024;-51
2022/09/22 10:59:19;;;;;;;2.63;1.35;;;15.30;99.90;;;;;;5048836;28;20028;-47
2022/09/22 11:02:28;;;;;;;5.15;1.50;;;15.20;99.90;;;;;;5048837;28;20100;-48
2022/09/22 11:04:57;;;;;;;1.63;1.30;;;15.20;99.90;;;;;;4992249;28;20033;-50
2022/09/22 11:14:15;;;;;;;2.25;0.95;;;15.20;99.90;;;;;;5043826;28;20079;-46
2022/09/22 11:16:56;;;;;;;1.05;0.88;;;15.30;99.90;;;;;;4939213;29;20529;-49
2022/09/22 11:19:30;;;;;;;2.65;1.27;;;15.40;99.90;;;;;;5028605;28;20048;-47
2022/09/22 11:21:56;;;;;;;1.60;0.95;;;15.50;99.90;;;;;;5045456;28;20032;-46
2022/09/22 11:24:35;;;;;;;5.68;1.13;;;15.60;98.30;;;;;;5041875;28;20321;-47
2022/09/22 11:27:01;;;;;;;3.13;1.10;;;15.70;99.90;;;;;;5050619;28;20021;-50
2022/09/22 11:29:58;;;;;;;2.53;1.10;;;15.80;99.90;;;;;;5046712;28;20024;-50
2022/09/22 11:32:31;;;;;;;2.70;1.00;;;15.80;99.90;;;;;;5050758;28;20108;-49
2022/09/22 11:34:56;;;;;;;5.97;1.17;;;15.80;99.90;;;;;;5045460;28;20041;-49
2022/09/22 11:37:57;;;;;;;3.42;1.10;;;15.80;99.90;;;;;;5049533;28;20021;-47
2022/09/22 11:40:51;;;;;;;3.20;1.38;;;15.90;99.90;;;;;;5043162;28;20037;-51
2022/09/22 11:43:22;;;;;;;2.05;0.75;;;15.80;99.30;;;;;;5034924;28;20066;-51
2022/09/22 11:46:07;;;;;;;3.08;0.85;;;15.90;99.90;;;;;;5046493;28;20526;-49
2022/09/22 11:48:47;;;;;;;3.63;1.25;;;15.90;99.60;;;;;;5039501;28;20021;-50
2022/09/22 11:51:18;;;;;;;3.97;1.42;;;15.90;99.90;;;;;;5045237;28;20021;-47
2022/09/22 11:54:24;;;;;;;2.60;0.70;;;16.00;98.70;;;;;;5050323;28;20083;-47
2022/09/22 11:56:53;;;;;;;4.47;1.30;;;16.00;99.90;;;;;;5042682;28;20013;-50
2022/09/22 11:59:40;;;;;;;5.55;1.00;;;16.00;99.00;;;;;;5046628;28;20026;-51
2022/09/22 12:02:29;;;;;;;3.75;0.98;;;16.00;99.90;;;;;;5046355;28;20503;-47
2022/09/22 12:05:12;;;;;;;3.40;1.05;;;16.00;99.90;;;;;;5026886;28;20031;-46
2022/09/22 12:07:44;;;;;;;3.72;1.35;;;16.00;99.90;;;;;;5047388;28;20025;-47
2022/09/22 12:10:34;;;;;;;2.60;1.45;;;16.00;99.90;;;;;;5049361;28;20518;-48
2022/09/22 12:13:05;;;;;;;1.95;1.30;;;16.00;99.90;;;;;;5044584;28;20492;-47
2022/09/22 12:15:57;;;;;;;3.20;1.17;;;16.10;98.70;;;;;;5038709;28;20119;-45
2022/09/22 12:18:36;;;;;;;2.53;1.40;;;16.10;99.90;;;;;;5040524;28;20013;-46
2022/09/22 12:21:26;;;;;;;3.55;1.33;;;16.10;99.90;;;;;;5048232;28;20424;-47
2022/09/22 12:23:53;;;;;;;1.45;0.98;;;16.00;99.90;;;;;;5046527;28;20083;-49
2022/09/22 12:26:47;;;;;;;4.55;1.13;;;16.00;99.90;;;;;;5049101;28;20024;-46
2022/09/22 12:29:15;;;;;;;2.65;1.30;;;16.00;99.90;;;;;;5037938;28;20484;-47
2022/09/22 12:31:43;;;;;;;1.85;1.10;;;15.90;99.90;;;;;;5048168;28;20415;-49
2022/09/22 12:34:26;;;;;;;2.97;1.35;;;15.90;99.90;;;;;;5043885;28;20032;-47
2022/09/22 12:36:55;;;;;;;4.13;1.30;;;15.90;99.60;;;;;;5047504;28;20422;-48
2022/09/22 12:39:24;;;;;;;1.38;0.95;;;15.80;99.90;;;;;;5044042;28;20025;-47
2022/09/22 12:42:16;;;;;;;1.65;1.10;;;15.80;99.90;;;;;;5045978;28;20029;-48
2022/09/22 12:45:00;;;;;;;5.80;1.55;;;15.70;99.90;;;;;;5041363;28;20380;-47
2022/09/22 12:47:37;;;;;;;1.73;1.30;;;15.80;99.90;;;;;;5034549;28;20041;-48
2022/09/22 12:50:12;;;;;;;2.92;1.35;;;15.70;99.90;;;;;;5046054;28;20064;-48
2022/09/22 12:52:41;;;;;;;4.25;1.17;;;15.80;99.90;;;;;;5047640;28;20472;-47
2022/09/22 12:55:18;;;;;;;2.83;1.13;;;15.80;99.90;;;;;;5045799;28;20024;-50
2022/09/22 12:57:48;;;;;;;6.72;1.52;;;15.90;99.90;;;;;;5048206;28;20131;-47
2022/09/22 13:00:22;;;;;;;2.63;1.00;;;16.00;99.50;;;;;;5044669;28;20029;-48
2022/09/22 13:02:49;;;;;;;4.15;1.13;;;16.10;99.90;;;;;;5047058;28;20032;-52
2022/09/22 13:05:23;;;;;;;3.65;1.00;;;16.20;99.90;;;;;;5033598;28;20021;-47
2022/09/22 13:07:50;;;;;;;1.75;0.60;;;16.20;99.80;;;;;;5046080;28;20391;-48
2022/09/22 13:10:21;;;;;;;3.50;0.98;;;16.20;99.90;;;;;;5067206;22;20040;-54
2022/09/22 13:15:32;;;;;;;4.05;1.00;;;16.30;99.90;;;;;;5056001;28;20025;-57
2022/09/22 13:17:57;;;;;;;3.30;1.15;;;16.30;99.90;;;;;;5060070;28;20017;-55
2022/09/22 13:20:34;;;;;;;2.60;0.93;;;16.40;99.90;;;;;;5062265;28;20013;-56
2022/09/22 13:23:04;;;;;;;3.33;1.10;;;16.40;99.90;;;;;;5059460;28;20075;-55
2022/09/22 13:25:30;;;;;;;2.28;0.80;;;16.40;99.90;;;;;;5057647;28;20509;-56
2022/09/22 13:28:10;;;;;;;2.05;0.90;;;16.30;99.90;;;;;;5064176;28;20104;-58
2022/09/22 13:30:37;;;;;;;2.53;1.00;;;16.30;99.90;;;;;;5056742;28;20049;-57
2022/09/22 13:33:03;;;;;;;2.78;1.10;;;16.30;99.90;;;;;;5064208;28;20035;-53
2022/09/22 13:35:36;;;;;;;4.22;0.85;;;16.20;99.90;;;;;;5057522;28;20076;-57
2022/09/22 13:38:02;;;;;;;2.22;0.70;;;16.20;99.90;;;;;;5069752;28;20016;-53
2022/09/22 13:40:33;;;;;;;1.52;0.93;;;16.30;99.90;;;;;;5065509;28;20059;-52